Time;durP1;ratioP1;P1;durP2;ratioP2;P2;SDS_P1;SDS_P2;PMS_P1;PMS_P2;Temp;Humidity;BMP_temperature;BMP_pressure;BME280_temperature;BME280_humidity;BME280_pressure;Samples;Min_cycle;Max_cycle;Signal;HPM_P1;HPM_P2
2024/01/04 00:00:25;;;;;;;0.00;0.00;;;;;;;17.03;53.92;99610.31;5057033;28;20028;-75
2024/01/04 00:02:51;;;;;;;0.23;0.23;;;;;;;16.85;54.35;99608.69;5047499;28;20021;-74
2024/01/04 00:05:16;;;;;;;10.17;1.60;;;;;;;17.22;53.39;99617.22;5067100;28;20052;-74
2024/01/04 00:07:42;;;;;;;0.00;0.00;;;;;;;17.02;53.88;99620.97;5053537;28;20121;-75
2024/01/04 00:10:08;;;;;;;0.00;0.00;;;;;;;17.71;51.97;99617.00;5061225;28;20035;-75
2024/01/04 00:12:33;;;;;;;0.00;0.00;;;;;;;17.64;52.32;99628.88;5071567;28;20032;-74
2024/01/04 00:14:59;;;;;;;0.00;0.00;;;;;;;16.55;54.24;99630.53;5057094;28;20082;-74
2024/01/04 00:17:25;;;;;;;1.83;1.60;;;;;;;17.07;53.29;99632.97;5048632;28;20104;-74
2024/01/04 00:19:51;;;;;;;0.00;0.00;;;;;;;17.06;52.73;99640.97;5063639;28;20033;-74
2024/01/04 00:22:16;;;;;;;0.00;0.00;;;;;;;16.77;54.17;99644.28;5062460;28;20024;-74
2024/01/04 00:24:41;;;;;;;0.00;0.00;;;;;;;17.20;53.92;99656.03;5051996;28;20025;-74
2024/01/04 00:27:07;;;;;;;0.00;0.00;;;;;;;16.37;55.00;99650.84;5068184;28;20056;-73
2024/01/04 00:29:32;;;;;;;0.00;0.00;;;;;;;16.37;56.42;99656.94;5070980;28;20025;-73
2024/01/04 00:31:57;;;;;;;0.00;0.00;;;;;;;17.32;52.87;99659.78;5051553;28;20078;-74
2024/01/04 00:34:23;;;;;;;0.77;0.77;;;;;;;16.49;55.01;99657.25;5055073;28;20107;-74
2024/01/04 00:36:48;;;;;;;0.30;0.30;;;;;;;16.28;56.49;99662.72;5059315;28;20045;-74
2024/01/04 00:39:13;;;;;;;0.00;0.00;;;;;;;17.26;53.38;99658.34;5037014;28;20392;-74
2024/01/04 00:41:39;;;;;;;0.00;0.00;;;;;;;16.98;53.71;99659.91;5072185;28;20024;-74
2024/01/04 00:44:04;;;;;;;1.23;1.23;;;;;;;17.15;53.52;99658.09;5069469;28;20024;-74
2024/01/04 00:46:29;;;;;;;0.20;0.20;;;;;;;17.38;52.59;99660.28;5050243;28;20040;-73
2024/01/04 00:48:55;;;;;;;2.27;0.57;;;;;;;17.09;53.26;99675.13;5045608;28;20053;-74
2024/01/04 00:51:20;;;;;;;0.00;0.00;;;;;;;17.19;53.96;99680.75;5052177;28;20296;-74
2024/01/04 00:53:46;;;;;;;0.33;0.33;;;;;;;16.31;55.91;99693.31;5050472;28;20047;-73
2024/01/04 00:56:11;;;;;;;0.00;0.00;;;;;;;16.81;54.78;99688.97;5069209;28;20486;-75
2024/01/04 00:58:37;;;;;;;0.00;0.00;;;;;;;16.14;57.08;99707.38;5055342;28;20032;-74
2024/01/04 01:01:05;;;;;;;0.00;0.00;;;;;;;16.14;56.83;99708.22;5064508;28;20024;-73
2024/01/04 01:03:30;;;;;;;0.00;0.00;;;;;;;15.97;58.40;99722.28;5070350;28;20531;-73
2024/01/04 01:05:57;;;;;;;0.53;0.53;;;;;;;16.15;57.30;99719.66;5054465;28;20112;-74
2024/01/04 01:08:24;;;;;;;0.10;0.10;;;;;;;16.50;57.02;99723.09;5050362;28;20025;-73
2024/01/04 01:10:50;;;;;;;0.63;0.53;;;;;;;17.06;54.23;99721.03;5062350;28;20568;-74
2024/01/04 01:13:20;;;;;;;0.00;0.00;;;;;;;15.62;57.72;99735.38;5071413;28;20082;-73
2024/01/04 01:15:46;;;;;;;0.00;0.00;;;;;;;16.07;55.73;99741.97;5058636;28;20039;-73
2024/01/04 01:18:11;;;;;;;0.00;0.00;;;;;;;15.71;56.40;99748.09;5049706;28;20105;-73
2024/01/04 01:20:37;;;;;;;0.00;0.00;;;;;;;15.75;57.77;99749.63;5049341;28;20457;-73
2024/01/04 01:23:02;;;;;;;0.00;0.00;;;;;;;15.70;55.59;99751.66;5047207;28;20067;-73
2024/01/04 01:25:27;;;;;;;0.00;0.00;;;;;;;16.44;53.37;99758.56;5048635;28;20036;-73
2024/01/04 01:27:53;;;;;;;0.00;0.00;;;;;;;16.44;52.76;99760.34;5069075;28;20028;-73
2024/01/04 01:30:18;;;;;;;0.00;0.00;;;;;;;16.70;52.57;99763.41;5065800;28;20025;-73
2024/01/04 01:32:44;;;;;;;0.00;0.00;;;;;;;15.35;55.63;99761.25;5050319;28;20029;-73
2024/01/04 01:35:09;;;;;;;0.00;0.00;;;;;;;16.70;53.20;99780.06;5053298;28;20070;-73
2024/01/04 01:37:34;;;;;;;0.07;0.07;;;;;;;16.65;52.50;99779.50;5069692;28;20029;-74
2024/01/04 01:40:00;;;;;;;0.00;0.00;;;;;;;16.61;52.46;99784.06;5069239;28;20072;-73
2024/01/04 01:42:25;;;;;;;0.00;0.00;;;;;;;16.96;52.35;99785.81;5066805;28;20071;-73
2024/01/04 01:44:50;;;;;;;0.00;0.00;;;;;;;16.96;52.40;99791.09;5049877;28;20017;-74
2024/01/04 01:47:16;;;;;;;0.00;0.00;;;;;;;17.04;52.46;99791.53;5073825;28;20026;-74
2024/01/04 01:49:41;;;;;;;0.00;0.00;;;;;;;16.65;53.52;99800.59;5043929;28;20041;-73
2024/01/04 01:52:07;;;;;;;0.00;0.00;;;;;;;16.31;55.06;99804.06;5065786;28;20112;-73
2024/01/04 01:54:32;;;;;;;0.17;0.17;;;;;;;17.06;53.18;99800.25;5067868;28;20028;-73
2024/01/04 01:56:58;;;;;;;0.10;0.10;;;;;;;17.12;51.78;99802.53;5064342;28;20553;-73
2024/01/04 01:59:24;;;;;;;0.00;0.00;;;;;;;17.55;51.34;99809.06;5054924;28;20029;-74
2024/01/04 02:01:51;;;;;;;32.27;1.27;;;;;;;17.30;52.16;99810.41;5059421;28;20401;-73
2024/01/04 02:04:16;;;;;;;0.00;0.00;;;;;;;16.95;53.13;99805.22;5061777;28;20384;-72
2024/01/04 02:06:41;;;;;;;0.00;0.00;;;;;;;17.70;51.71;99813.50;5058796;28;20477;-73
2024/01/04 02:09:07;;;;;;;0.63;0.63;;;;;;;16.95;53.56;99815.78;5050967;28;20079;-73
2024/01/04 02:11:32;;;;;;;0.43;0.43;;;;;;;16.90;53.47;99823.94;5055162;28;20028;-73
2024/01/04 02:13:58;;;;;;;0.00;0.00;;;;;;;16.32;54.77;99822.47;5070804;28;20028;-73
2024/01/04 02:16:23;;;;;;;0.00;0.00;;;;;;;16.96;53.99;99822.75;5064147;28;20104;-73
2024/01/04 02:18:48;;;;;;;0.00;0.00;;;;;;;16.71;53.38;99829.28;5039492;28;20378;-73
2024/01/04 02:21:14;;;;;;;0.00;0.00;;;;;;;16.18;55.12;99835.47;5052668;28;20024;-73
2024/01/04 02:23:39;;;;;;;0.20;0.20;;;;;;;17.30;53.01;99831.53;5069198;28;20107;-73
2024/01/04 02:26:04;;;;;;;0.53;0.20;;;;;;;16.94;54.64;99841.31;5057552;28;20025;-73
2024/01/04 02:28:30;;;;;;;0.00;0.00;;;;;;;16.62;53.89;99848.22;5070212;28;20067;-73
2024/01/04 02:30:55;;;;;;;0.50;0.47;;;;;;;16.59;54.47;99851.00;5058490;28;20056;-73
2024/01/04 02:33:21;;;;;;;0.00;0.00;;;;;;;16.07;56.20;99849.19;5065400;28;20405;-73
2024/01/04 02:35:46;;;;;;;0.20;0.20;;;;;;;17.23;51.82;99851.28;5048668;28;20108;-73
2024/01/04 02:38:11;;;;;;;0.00;0.00;;;;;;;17.29;52.22;99850.94;5068062;28;20491;-72
2024/01/04 02:40:37;;;;;;;0.50;0.50;;;;;;;17.39;51.66;99851.31;5065795;28;20075;-73
2024/01/04 02:43:02;;;;;;;0.33;0.20;;;;;;;16.88;52.92;99860.06;5082444;28;20505;-73
2024/01/04 02:45:27;;;;;;;0.00;0.00;;;;;;;17.09;52.29;99876.63;5069159;28;20028;-74
2024/01/04 02:47:53;;;;;;;0.10;0.10;;;;;;;17.55;52.59;99877.75;5060321;28;20028;-74
2024/01/04 02:50:18;;;;;;;0.00;0.00;;;;;;;17.03;52.45;99890.13;5047961;28;20178;-74
2024/01/04 02:52:44;;;;;;;0.13;0.13;;;;;;;16.99;52.03;99891.22;5062975;28;20479;-74
2024/01/04 02:55:10;;;;;;;0.97;0.30;;;;;;;16.19;53.93;99889.91;5062853;28;20094;-74
2024/01/04 02:57:35;;;;;;;0.00;0.00;;;;;;;15.59;55.11;99893.53;5076136;28;20074;-74
2024/01/04 03:00:01;;;;;;;0.00;0.00;;;;;;;15.83;54.44;99898.66;5054525;28;20037;-74
2024/01/04 03:02:26;;;;;;;0.00;0.00;;;;;;;16.49;53.10;99902.53;5042315;28;20532;-74
2024/01/04 03:04:52;;;;;;;0.00;0.00;;;;;;;16.96;51.91;99896.66;5044158;28;20029;-74
2024/01/04 03:07:17;;;;;;;0.00;0.00;;;;;;;16.74;51.32;99897.72;5050692;28;20029;-74
2024/01/04 03:09:42;;;;;;;0.00;0.00;;;;;;;17.33;50.92;99905.31;5061174;28;20041;-74
2024/01/04 03:12:08;;;;;;;0.00;0.00;;;;;;;17.58;50.71;99904.00;5053051;28;20017;-74
2024/01/04 03:14:34;;;;;;;0.00;0.00;;;;;;;18.06;48.81;99899.63;5068408;28;20016;-73
2024/01/04 03:16:59;;;;;;;0.00;0.00;;;;;;;17.84;49.66;99910.50;5065151;28;20055;-73
2024/01/04 03:19:24;;;;;;;0.00;0.00;;;;;;;17.77;49.93;99902.06;5048991;28;20479;-73
2024/01/04 03:21:50;;;;;;;0.00;0.00;;;;;;;17.82;49.29;99909.75;5051634;28;20037;-73
2024/01/04 03:24:15;;;;;;;0.00;0.00;;;;;;;18.18;48.95;99894.59;5068597;28;20024;-73
2024/01/04 03:26:40;;;;;;;0.67;0.20;;;;;;;18.29;48.69;99902.78;5068895;28;20028;-74
2024/01/04 03:29:06;;;;;;;0.20;0.20;;;;;;;18.91;47.19;99917.78;5046693;28;20128;-73
2024/01/04 03:31:31;;;;;;;0.00;0.00;;;;;;;18.50;48.21;99923.66;5028447;28;20021;-74
2024/01/04 03:33:56;;;;;;;0.00;0.00;;;;;;;18.69;47.60;99928.75;5052366;28;20033;-73
2024/01/04 03:36:22;;;;;;;0.00;0.00;;;;;;;18.37;47.91;99927.00;5048485;28;20440;-74
2024/01/04 03:38:47;;;;;;;0.00;0.00;;;;;;;17.97;49.07;99927.44;5063035;28;20063;-73
2024/01/04 03:41:13;;;;;;;0.10;0.10;;;;;;;16.45;52.51;99936.97;5067812;28;20111;-74
2024/01/04 03:43:38;;;;;;;0.10;0.10;;;;;;;17.75;50.30;99943.59;5057365;28;20515;-74
2024/01/04 03:46:05;;;;;;;0.00;0.00;;;;;;;16.17;54.63;99949.75;5053783;28;20082;-73
2024/01/04 03:48:31;;;;;;;0.00;0.00;;;;;;;16.82;53.76;99941.38;5050467;28;20049;-73
2024/01/04 03:50:57;;;;;;;0.00;0.00;;;;;;;16.65;54.21;99940.44;5051578;28;20550;-74
2024/01/04 03:53:22;;;;;;;0.00;0.00;;;;;;;17.27;52.77;99954.03;5057688;28;20060;-73
2024/01/04 03:55:48;;;;;;;0.00;0.00;;;;;;;16.84;54.40;99950.03;5071437;28;20068;-73
2024/01/04 03:58:13;;;;;;;0.00;0.00;;;;;;;16.94;53.70;99956.63;5063372;28;20070;-73
2024/01/04 04:00:38;;;;;;;0.10;0.10;;;;;;;16.98;53.09;99963.44;5062496;28;20027;-73
2024/01/04 04:03:04;;;;;;;0.00;0.00;;;;;;;17.18;53.22;99964.22;5051517;28;20017;-73
2024/01/04 04:05:29;;;;;;;0.00;0.00;;;;;;;16.59;54.49;99964.44;5071534;28;20067;-73
2024/01/04 04:07:55;;;;;;;0.93;0.93;;;;;;;16.37;55.67;99968.13;5071444;28;20480;-73
2024/01/04 04:10:22;;;;;;;0.00;0.00;;;;;;;16.81;53.54;99968.69;5052868;28;20102;-74
2024/01/04 04:12:47;;;;;;;0.00;0.00;;;;;;;17.13;53.86;99960.03;5052642;28;20036;-73
2024/01/04 04:15:12;;;;;;;0.00;0.00;;;;;;;16.90;54.34;99965.63;5069815;28;20028;-73
2024/01/04 04:17:38;;;;;;;0.83;0.83;;;;;;;16.87;54.07;99960.44;5058355;28;20033;-72
2024/01/04 04:20:04;;;;;;;0.00;0.00;;;;;;;15.59;57.33;99975.19;5066663;28;20483;-73
2024/01/04 04:22:29;;;;;;;0.00;0.00;;;;;;;17.11;54.30;99980.34;5051572;28;20033;-73
2024/01/04 04:24:55;;;;;;;0.27;0.27;;;;;;;16.70;54.71;99974.47;5056629;28;20451;-73
2024/01/04 04:27:20;;;;;;;0.00;0.00;;;;;;;16.95;55.21;99979.41;5032909;28;20034;-73
2024/01/04 04:29:46;;;;;;;0.00;0.00;;;;;;;16.47;55.15;99973.81;5060218;28;20472;-73
2024/01/04 04:32:11;;;;;;;0.10;0.10;;;;;;;15.90;56.09;99994.94;5052693;28;20067;-73
2024/01/04 04:34:36;;;;;;;0.00;0.00;;;;;;;16.43;55.09;99983.66;5057849;28;20036;-73
2024/01/04 04:37:03;;;;;;;0.00;0.00;;;;;;;16.77;55.02;99987.31;5060012;28;20028;-73
2024/01/04 04:39:31;;;;;;;0.00;0.00;;;;;;;17.35;53.04;99995.03;5053666;28;20079;-73
2024/01/04 04:41:58;;;;;;;0.50;0.50;;;;;;;16.62;54.35;99993.31;5031482;28;20499;-73
2024/01/04 04:44:23;;;;;;;0.00;0.00;;;;;;;16.96;54.61;99991.69;5047830;28;20028;-73
2024/01/04 04:46:49;;;;;;;0.00;0.00;;;;;;;16.71;53.61;99994.66;5069810;28;20037;-73
2024/01/04 04:49:14;;;;;;;0.00;0.00;;;;;;;17.07;53.60;100005.19;5052163;28;20461;-73
2024/01/04 04:51:39;;;;;;;0.00;0.00;;;;;;;17.34;53.13;100006.53;5048973;28;20033;-73
2024/01/04 04:54:05;;;;;;;0.50;0.50;;;;;;;16.90;53.87;100010.50;5050587;28;20039;-74
2024/01/04 04:56:30;;;;;;;0.13;0.13;;;;;;;17.02;54.36;100025.72;5050223;28;20028;-74
2024/01/04 04:58:56;;;;;;;0.00;0.00;;;;;;;16.47;57.25;100030.97;5051020;28;20079;-75
2024/01/04 05:01:21;;;;;;;1.33;1.23;;;;;;;15.65;59.27;100046.06;5051371;28;20054;-75
2024/01/04 05:03:46;;;;;;;0.00;0.00;;;;;;;15.76;60.71;100048.22;5050439;28;20491;-76
2024/01/04 05:06:12;;;;;;;0.00;0.00;;;;;;;15.34;59.46;100046.50;5069918;28;20032;-78
2024/01/04 05:08:37;;;;;;;0.00;0.00;;;;;;;15.07;62.45;100052.88;5072170;28;20046;-78
2024/01/04 05:11:04;;;;;;;0.20;0.20;;;;;;;15.04;60.80;100041.59;5054772;28;20486;-77
2024/01/04 05:13:30;;;;;;;0.00;0.00;;;;;;;15.58;57.74;100037.56;5053285;28;20029;-77
2024/01/04 05:15:55;;;;;;;0.00;0.00;;;;;;;16.04;55.94;100042.59;5065019;28;20035;-76
2024/01/04 05:18:21;;;;;;;0.00;0.00;;;;;;;15.91;55.27;100044.09;5054462;28;20163;-75
2024/01/04 05:20:46;;;;;;;0.00;0.00;;;;;;;15.62;54.52;100048.81;5077886;28;20035;-75
2024/01/04 05:23:11;;;;;;;0.00;0.00;;;;;;;15.68;53.45;100053.81;5047680;28;20025;-75
2024/01/04 05:25:37;;;;;;;0.00;0.00;;;;;;;15.47;54.35;100060.88;5052781;28;20464;-75
2024/01/04 05:28:03;;;;;;;0.00;0.00;;;;;;;15.58;55.70;100053.34;5072366;28;20110;-75
2024/01/04 05:30:31;;;;;;;0.00;0.00;;;;;;;15.99;54.13;100065.69;5062497;28;20021;-73
2024/01/04 05:32:56;;;;;;;0.00;0.00;;;;;;;16.03;55.06;100064.63;5051403;28;20036;-75
2024/01/04 05:35:22;;;;;;;0.00;0.00;;;;;;;16.41;53.37;100069.91;5057988;28;20029;-74
2024/01/04 05:37:47;;;;;;;0.00;0.00;;;;;;;15.90;55.74;100064.28;5053825;28;20024;-75
2024/01/04 05:40:13;;;;;;;0.00;0.00;;;;;;;16.18;54.70;100072.75;5054616;28;20020;-74
2024/01/04 05:42:38;;;;;;;0.00;0.00;;;;;;;15.59;56.67;100076.16;5071183;28;20437;-75
2024/01/04 05:45:04;;;;;;;0.00;0.00;;;;;;;16.69;54.05;100071.25;5068220;28;20551;-75
2024/01/04 05:47:30;;;;;;;0.00;0.00;;;;;;;16.63;53.69;100074.19;5039405;28;20037;-74
2024/01/04 05:49:56;;;;;;;0.00;0.00;;;;;;;16.24;55.53;100090.94;5031444;28;20129;-74
2024/01/04 05:52:21;;;;;;;0.00;0.00;;;;;;;16.24;56.01;100090.94;5070694;28;20434;-75
2024/01/04 05:54:46;;;;;;;0.00;0.00;;;;;;;15.96;56.84;100094.78;5049089;28;20032;-75
2024/01/04 05:57:12;;;;;;;0.00;0.00;;;;;;;15.91;58.08;100096.78;5065633;28;20529;-75
2024/01/04 05:59:37;;;;;;;0.00;0.00;;;;;;;16.58;55.29;100092.00;5069993;28;20127;-75
2024/01/04 06:02:03;;;;;;;0.10;0.10;;;;;;;16.33;54.78;100093.13;5052578;28;20028;-75
2024/01/04 06:04:31;;;;;;;0.00;0.00;;;;;;;15.88;56.12;100113.59;5029872;28;20052;-74
2024/01/04 06:06:56;;;;;;;0.00;0.00;;;;;;;16.29;56.98;100110.03;5057982;28;20028;-75
2024/01/04 06:09:22;;;;;;;0.00;0.00;;;;;;;16.91;54.92;100105.44;5061915;28;20068;-74
2024/01/04 06:11:47;;;;;;;0.00;0.00;;;;;;;17.00;54.08;100098.84;5049447;28;20053;-74
2024/01/04 06:14:13;;;;;;;0.00;0.00;;;;;;;17.83;52.33;100103.56;5050404;28;20029;-74
2024/01/04 06:16:38;;;;;;;0.00;0.00;;;;;;;17.57;52.02;100109.25;5054059;28;20020;-75
2024/01/04 06:19:04;;;;;;;0.00;0.00;;;;;;;17.89;50.88;100119.09;5049678;28;20028;-75
2024/01/04 06:21:29;;;;;;;0.87;0.87;;;;;;;17.19;52.85;100122.56;5049199;28;20031;-74
2024/01/04 06:23:55;;;;;;;0.00;0.00;;;;;;;16.11;56.01;100133.66;5049413;28;20044;-74
2024/01/04 06:26:21;;;;;;;0.00;0.00;;;;;;;17.04;53.47;100121.53;5053180;28;20017;-74
2024/01/04 06:28:46;;;;;;;0.10;0.10;;;;;;;17.72;52.29;100123.47;5067721;28;20472;-74
2024/01/04 06:31:12;;;;;;;0.00;0.00;;;;;;;16.87;54.67;100132.00;5051708;28;20072;-74
2024/01/04 06:33:37;;;;;;;0.00;0.00;;;;;;;16.95;53.21;100143.06;5055167;28;20032;-75
2024/01/04 06:36:04;;;;;;;0.00;0.00;;;;;;;16.97;53.87;100151.78;5050568;28;20063;-74
2024/01/04 06:38:30;;;;;;;0.00;0.00;;;;;;;17.20;53.06;100141.91;5052876;28;20033;-74
2024/01/04 06:40:58;;;;;;;0.00;0.00;;;;;;;17.86;51.62;100145.69;5045668;28;20527;-74
2024/01/04 06:43:23;;;;;;;0.10;0.10;;;;;;;18.00;51.41;100148.50;5067831;28;20032;-74
2024/01/04 06:45:49;;;;;;;0.83;0.57;;;;;;;18.03;50.65;100148.34;5068632;28;20051;-74
2024/01/04 06:48:14;;;;;;;0.00;0.00;;;;;;;18.35;50.26;100159.00;5050143;28;20052;-74
2024/01/04 06:50:40;;;;;;;0.00;0.00;;;;;;;18.33;49.85;100160.91;5044536;28;20128;-74
2024/01/04 06:53:06;;;;;;;0.00;0.00;;;;;;;18.27;49.51;100161.22;5044031;28;20082;-74
2024/01/04 06:55:33;;;;;;;0.00;0.00;;;;;;;18.18;50.06;100167.00;5047044;28;20402;-74
2024/01/04 06:57:58;;;;;;;0.00;0.00;;;;;;;17.86;51.28;100182.69;5048091;28;20032;-74
2024/01/04 07:00:24;;;;;;;0.07;0.07;;;;;;;18.11;51.30;100177.88;5047978;28;20028;-74
2024/01/04 07:02:49;;;;;;;0.00;0.00;;;;;;;18.06;51.00;100184.34;5058004;28;20032;-75
2024/01/04 07:05:14;;;;;;;0.00;0.00;;;;;;;15.48;56.46;100193.41;5068809;28;20058;-75
2024/01/04 07:07:40;;;;;;;0.00;0.00;;;;;;;16.14;55.25;100187.16;5063535;28;20060;-75
2024/01/04 07:10:06;;;;;;;0.00;0.00;;;;;;;15.86;55.04;100197.09;5064252;28;20370;-75
2024/01/04 07:12:32;;;;;;;0.43;0.43;;;;;;;16.64;54.07;100197.25;5054936;28;20502;-74
2024/01/04 07:14:57;;;;;;;0.00;0.00;;;;;;;16.40;51.36;100200.09;5052602;28;20086;-75
2024/01/04 07:17:23;;;;;;;0.00;0.00;;;;;;;16.26;52.78;100207.72;5050403;28;20052;-74
2024/01/04 07:19:49;;;;;;;0.00;0.00;;;;;;;16.53;51.60;100204.81;5051698;28;20037;-74
2024/01/04 07:22:17;;;;;;;0.10;0.10;;;;;;;16.34;51.87;100204.78;5053125;28;20396;-75
2024/01/04 07:24:43;;;;;;;0.03;0.03;;;;;;;16.11;53.86;100210.13;5036248;28;20042;-75
2024/01/04 07:27:09;;;;;;;0.00;0.00;;;;;;;16.54;52.78;100224.97;5044742;28;20035;-74
2024/01/04 07:29:34;;;;;;;0.00;0.00;;;;;;;16.29;53.16;100223.41;5057221;28;20124;-74
2024/01/04 07:31:59;;;;;;;0.00;0.00;;;;;;;16.87;52.40;100224.38;5054813;28;20525;-73
2024/01/04 07:34:26;;;;;;;0.00;0.00;;;;;;;17.11;51.05;100223.25;5054046;28;20455;-74
2024/01/04 07:36:51;;;;;;;0.00;0.00;;;;;;;16.75;52.30;100226.66;5053668;28;20036;-73
2024/01/04 07:39:17;;;;;;;0.00;0.00;;;;;;;16.58;52.48;100237.09;5067718;28;20400;-75
2024/01/04 07:41:43;;;;;;;0.00;0.00;;;;;;;16.79;51.76;100232.66;5055203;28;20032;-74
2024/01/04 07:44:09;;;;;;;0.00;0.00;;;;;;;17.94;49.17;100233.41;5076199;28;20055;-74
2024/01/04 07:46:34;;;;;;;0.00;0.00;;;;;;;18.19;48.11;100227.75;5049886;28;20405;-75
2024/01/04 07:49:00;;;;;;;0.03;0.03;;;;;;;18.40;47.94;100236.34;5048115;28;20049;-75
2024/01/04 07:51:25;;;;;;;0.00;0.00;;;;;;;18.33;47.88;100234.97;5052576;28;20468;-74
2024/01/04 07:53:50;;;;;;;0.00;0.00;;;;;;;17.86;49.16;100246.13;5063689;28;20112;-75
2024/01/04 07:56:16;;;;;;;0.00;0.00;;;;;;;17.30;50.43;100254.09;5073953;28;20016;-74
2024/01/04 07:58:41;;;;;;;2.20;2.07;;;;;;;18.31;48.53;100247.41;5064376;28;20041;-75
2024/01/04 08:01:07;;;;;;;0.13;0.13;;;;;;;17.58;49.31;100253.63;5049626;28;20036;-74
2024/01/04 08:03:32;;;;;;;0.00;0.00;;;;;;;16.77;52.19;100256.47;5052517;28;20037;-74
2024/01/04 08:05:59;;;;;;;0.00;0.00;;;;;;;16.84;52.05;100256.19;5052091;28;20074;-74
2024/01/04 08:08:27;;;;;;;0.60;0.60;;;;;;;16.74;51.50;100255.75;5051153;28;20025;-74
2024/01/04 08:10:53;;;;;;;0.00;0.00;;;;;;;16.24;53.33;100265.81;5052128;28;20112;-74
2024/01/04 08:13:18;;;;;;;0.00;0.00;;;;;;;16.96;51.47;100260.94;5048265;28;20125;-74
2024/01/04 08:15:43;;;;;;;0.00;0.00;;;;;;;16.78;52.87;100263.44;5065121;28;20028;-74
2024/01/04 08:18:09;;;;;;;0.00;0.00;;;;;;;16.88;52.24;100268.31;5054326;28;20526;-74
2024/01/04 08:20:34;;;;;;;0.00;0.00;;;;;;;16.30;53.73;100261.19;5051736;28;20033;-73
2024/01/04 08:23:00;;;;;;;0.00;0.00;;;;;;;16.70;53.45;100265.56;5047209;28;20496;-74
2024/01/04 08:25:26;;;;;;;0.40;0.40;;;;;;;16.93;52.48;100266.38;5085602;28;20049;-74
2024/01/04 08:27:52;;;;;;;0.00;0.00;;;;;;;17.19;51.38;100262.53;5056990;28;20124;-74
2024/01/04 08:30:17;;;;;;;0.00;0.00;;;;;;;17.16;50.54;100264.44;5045903;28;20191;-75
2024/01/04 08:32:43;;;;;;;0.20;0.20;;;;;;;16.52;52.14;100266.41;5051039;28;20545;-74
2024/01/04 08:35:08;;;;;;;0.00;0.00;;;;;;;16.78;52.00;100268.72;5057958;28;20040;-74
2024/01/04 08:37:34;;;;;;;0.00;0.00;;;;;;;16.18;52.82;100273.97;5050359;28;20434;-74
2024/01/04 08:39:59;;;;;;;0.00;0.00;;;;;;;16.95;51.08;100269.78;5062367;28;20071;-74
2024/01/04 08:42:24;;;;;;;0.90;0.30;;;;;;;16.22;52.63;100275.53;5064459;28;20033;-74
2024/01/04 08:44:50;;;;;;;0.00;0.00;;;;;;;15.88;53.63;100276.97;5050175;28;20492;-73
2024/01/04 08:47:15;;;;;;;0.00;0.00;;;;;;;16.60;52.05;100274.84;5051425;28;20025;-74
2024/01/04 08:49:40;;;;;;;0.00;0.00;;;;;;;16.64;52.07;100279.06;5054110;28;20523;-74
2024/01/04 08:52:06;;;;;;;0.00;0.00;;;;;;;17.29;49.86;100286.72;5051339;28;20036;-73
2024/01/04 08:54:31;;;;;;;0.10;0.10;;;;;;;16.91;51.00;100289.31;5049076;28;20037;-74
2024/01/04 08:56:57;;;;;;;0.00;0.00;;;;;;;17.18;51.25;100292.50;5049452;28;20098;-74
2024/01/04 08:59:22;;;;;;;0.00;0.00;;;;;;;16.85;50.95;100294.88;5048952;28;20055;-74
2024/01/04 09:01:48;;;;;;;0.00;0.00;;;;;;;16.31;52.94;100295.41;5051529;28;20033;-73
2024/01/04 09:04:13;;;;;;;0.00;0.00;;;;;;;16.10;53.88;100298.03;5048105;28;20021;-76
2024/01/04 09:06:39;;;;;;;0.00;0.00;;;;;;;16.16;54.45;100303.97;5047000;28;20068;-76
2024/01/04 09:09:07;;;;;;;0.00;0.00;;;;;;;17.05;52.54;100296.63;5050856;28;20037;-76
2024/01/04 09:11:39;;;;;;;0.00;0.00;;;;;;;17.54;51.41;100309.34;5066619;28;20062;-73
2024/01/04 09:14:11;;;;;;;0.00;0.00;;;;;;;17.12;52.82;100308.63;5062484;28;20491;-74
2024/01/04 09:16:39;;;;;;;0.00;0.00;;;;;;;17.51;51.69;100320.06;5069054;28;20024;-74
2024/01/04 09:19:04;;;;;;;0.00;0.00;;;;;;;17.78;50.39;100324.03;5070138;28;20059;-74
2024/01/04 09:21:31;;;;;;;0.00;0.00;;;;;;;18.05;50.65;100315.72;5054604;28;20064;-74
2024/01/04 09:23:56;;;;;;;0.00;0.00;;;;;;;18.48;49.04;100323.28;5050493;28;20020;-75
2024/01/04 09:26:21;;;;;;;0.10;0.10;;;;;;;16.85;52.91;100329.19;5062448;28;20039;-74
2024/01/04 09:28:47;;;;;;;0.00;0.00;;;;;;;17.05;52.88;100323.00;5070153;28;20078;-74
2024/01/04 09:31:13;;;;;;;0.00;0.00;;;;;;;17.16;52.97;100330.47;5059035;28;20086;-74
2024/01/04 09:33:40;;;;;;;3.20;1.97;;;;;;;18.04;50.72;100335.16;5049957;28;20431;-74
2024/01/04 09:36:06;;;;;;;0.10;0.10;;;;;;;16.87;53.05;100337.88;5058071;28;20494;-74
2024/01/04 09:38:34;;;;;;;0.00;0.00;;;;;;;17.65;51.38;100330.81;5069582;28;20397;-74
2024/01/04 09:41:15;;;;;;;0.00;0.00;;;;;;;17.18;52.93;100344.47;5066301;28;20036;-75
2024/01/04 09:43:41;;;;;;;0.00;0.00;;;;;;;18.20;50.43;100337.03;5050695;28;20039;-74
2024/01/04 09:46:07;;;;;;;0.00;0.00;;;;;;;18.24;50.78;100341.25;5054482;28;20466;-74
2024/01/04 09:48:38;;;;;;;0.00;0.00;;;;;;;18.79;49.38;100338.44;5069592;28;20041;-74
2024/01/04 09:51:04;;;;;;;0.10;0.10;;;;;;;19.00;48.71;100351.53;5065750;28;20025;-74
2024/01/04 09:53:31;;;;;;;0.00;0.00;;;;;;;19.26;48.70;100355.44;5049166;28;20020;-74
2024/01/04 09:55:59;;;;;;;0.00;0.00;;;;;;;18.70;49.35;100357.44;5052723;28;20032;-75
2024/01/04 09:58:25;;;;;;;0.00;0.00;;;;;;;18.20;50.46;100374.06;5054448;28;20037;-74
2024/01/04 10:00:51;;;;;;;0.00;0.00;;;;;;;19.04;49.38;100363.66;5050256;28;20106;-74
2024/01/04 10:03:18;;;;;;;0.00;0.00;;;;;;;18.76;49.71;100365.06;5050590;28;20107;-75
2024/01/04 10:05:43;;;;;;;0.00;0.00;;;;;;;18.63;50.15;100364.00;5049849;28;20029;-74
2024/01/04 10:08:22;;;;;;;0.00;0.00;;;;;;;17.94;51.55;100373.53;5069055;28;20043;-75
2024/01/04 10:10:50;;;;;;;0.33;0.33;;;;;;;18.54;50.56;100375.88;5068821;28;20028;-75
2024/01/04 10:13:16;;;;;;;0.00;0.00;;;;;;;17.93;51.42;100379.78;5049994;28;20041;-74
2024/01/04 10:15:43;;;;;;;0.00;0.00;;;;;;;18.11;51.58;100389.44;5030212;28;20049;-75
2024/01/04 10:18:12;;;;;;;0.10;0.10;;;;;;;15.89;55.85;100399.06;5069967;28;20039;-75
2024/01/04 10:20:37;;;;;;;28.07;1.73;;;;;;;15.29;55.78;100388.09;5045922;28;20060;-76
2024/01/04 10:23:04;;;;;;;0.00;0.00;;;;;;;15.31;55.93;100392.41;5068876;28;20115;-76
2024/01/04 10:25:29;;;;;;;0.00;0.00;;;;;;;15.53;56.71;100395.09;5070058;28;20070;-74
2024/01/04 10:27:56;;;;;;;0.00;0.00;;;;;;;15.83;55.69;100401.94;5051732;28;20044;-75
2024/01/04 10:30:21;;;;;;;0.00;0.00;;;;;;;15.96;55.64;100405.78;5051144;28;20039;-74
2024/01/04 10:32:50;;;;;;;0.00;0.00;;;;;;;16.99;53.63;100398.06;5052347;28;20108;-75
2024/01/04 10:35:24;;;;;;;0.00;0.00;;;;;;;17.54;52.12;100409.75;5050096;28;20068;-75
2024/01/04 10:37:58;;;;;;;0.00;0.00;;;;;;;17.27;53.63;100403.00;5049214;28;20505;-76
2024/01/04 10:40:25;;;;;;;0.00;0.00;;;;;;;18.20;49.97;100403.16;5049485;28;20408;-75
2024/01/04 10:42:53;;;;;;;0.10;0.10;;;;;;;17.75;50.86;100399.94;5065713;28;20040;-75
2024/01/04 10:45:28;;;;;;;0.00;0.00;;;;;;;17.21;51.86;100407.69;5070601;28;20549;-75
2024/01/04 10:47:53;;;;;;;0.00;0.00;;;;;;;17.86;50.23;100399.44;5052312;28;20060;-75
2024/01/04 10:50:22;;;;;;;0.00;0.00;;;;;;;18.34;49.81;100406.00;5045014;28;20061;-75
2024/01/04 10:52:52;;;;;;;0.00;0.00;;;;;;;18.55;48.70;100397.94;5058853;28;20032;-74
2024/01/04 10:55:20;;;;;;;0.00;0.00;;;;;;;18.53;48.98;100399.78;5069106;28;20090;-75
2024/01/04 10:57:47;;;;;;;0.00;0.00;;;;;;;18.90;48.23;100404.09;5053599;28;20033;-74
2024/01/04 11:00:13;;;;;;;0.17;0.17;;;;;;;18.07;49.88;100411.69;5050328;28;20082;-74
2024/01/04 11:02:39;;;;;;;0.10;0.10;;;;;;;17.84;50.33;100411.91;5045854;28;20103;-74
2024/01/04 11:05:06;;;;;;;0.00;0.00;;;;;;;18.05;49.33;100400.34;5042588;28;20041;-75
2024/01/04 11:07:32;;;;;;;0.17;0.17;;;;;;;17.86;50.05;100405.63;5060541;28;20150;-75
2024/01/04 11:09:58;;;;;;;0.00;0.00;;;;;;;17.37;50.41;100398.16;5068655;28;20039;-74
2024/01/04 11:12:25;;;;;;;0.00;0.00;;;;;;;18.19;50.04;100396.16;5058621;28;20033;-74
2024/01/04 11:14:51;;;;;;;0.00;0.00;;;;;;;18.36;48.84;100398.00;5049818;28;20544;-74
2024/01/04 11:17:19;;;;;;;0.00;0.00;;;;;;;18.01;49.74;100404.06;5058968;28;20108;-75
2024/01/04 11:20:08;;;;;;;0.00;0.00;;;;;;;17.92;50.16;100407.13;5069888;28;20042;-75
2024/01/04 11:22:52;;;;;;;0.00;0.00;;;;;;;19.03;47.99;100398.16;5058594;28;20108;-75